sensor_id;sensor_type;location;lat;lon;timestamp;pressure;altitude;pressure_sealevel;temperature;humidity
54248;BME280;40161;39.768;2.722;2023-01-29T00:00:39;101746.38;;;6.91;99.76
54248;BME280;40161;39.768;2.722;2023-01-29T00:03:04;101753.66;;;6.96;99.34
54248;BME280;40161;39.768;2.722;2023-01-29T00:05:30;101737.78;;;6.66;100.00
54248;BME280;40161;39.768;2.722;2023-01-29T00:07:56;101755.47;;;6.69;100.00
54248;BME280;40161;39.768;2.722;2023-01-29T00:10:23;101750.69;;;6.75;100.00
54248;BME280;40161;39.768;2.722;2023-01-29T00:12:49;101735.75;;;6.81;100.00
54248;BME280;40161;39.768;2.722;2023-01-29T00:15:16;101728.19;;;6.69;100.00
54248;BME280;40161;39.768;2.722;2023-01-29T00:17:42;101723.63;;;6.56;100.00
54248;BME280;40161;39.768;2.722;2023-01-29T00:20:08;101724.25;;;6.53;100.00
54248;BME280;40161;39.768;2.722;2023-01-29T00:22:34;101744.13;;;6.84;100.00
54248;BME280;40161;39.768;2.722;2023-01-29T00:24:59;101734.03;;;6.94;100.00
54248;BME280;40161;39.768;2.722;2023-01-29T00:27:25;101730.69;;;6.97;99.53
54248;BME280;40161;39.768;2.722;2023-01-29T00:29:50;101710.69;;;6.70;98.22
54248;BME280;40161;39.768;2.722;2023-01-29T00:32:33;101750.75;;;6.92;98.76
54248;BME280;40161;39.768;2.722;2023-01-29T00:34:58;101736.28;;;6.92;99.04
54248;BME280;40161;39.768;2.722;2023-01-29T00:37:24;101745.69;;;6.77;98.72
54248;BME280;40161;39.768;2.722;2023-01-29T00:39:49;101732.84;;;6.77;100.00
54248;BME280;40161;39.768;2.722;2023-01-29T00:42:14;101743.34;;;6.93;100.00
54248;BME280;40161;39.768;2.722;2023-01-29T00:44:58;101743.94;;;6.81;99.70
54248;BME280;40161;39.768;2.722;2023-01-29T00:47:24;101735.75;;;6.72;99.50
54248;BME280;40161;39.768;2.722;2023-01-29T00:49:59;101753.00;;;6.99;100.00
54248;BME280;40161;39.768;2.722;2023-01-29T00:52:25;101747.84;;;6.97;99.73
54248;BME280;40161;39.768;2.722;2023-01-29T00:54:52;101732.22;;;6.72;98.41
54248;BME280;40161;39.768;2.722;2023-01-29T00:57:18;101733.47;;;6.74;99.58
54248;BME280;40161;39.768;2.722;2023-01-29T00:59:43;101739.88;;;6.61;100.00
54248;BME280;40161;39.768;2.722;2023-01-29T01:02:09;101717.91;;;6.66;100.00
54248;BME280;40161;39.768;2.722;2023-01-29T01:04:53;101725.84;;;6.45;100.00
54248;BME280;40161;39.768;2.722;2023-01-29T01:07:19;101727.50;;;6.55;100.00
54248;BME280;40161;39.768;2.722;2023-01-29T01:09:44;101728.28;;;6.55;100.00
54248;BME280;40161;39.768;2.722;2023-01-29T01:12:29;101740.88;;;6.74;100.00
54248;BME280;40161;39.768;2.722;2023-01-29T01:14:54;101709.53;;;6.62;100.00
54248;BME280;40161;39.768;2.722;2023-01-29T01:17:20;101716.66;;;6.72;100.00
54248;BME280;40161;39.768;2.722;2023-01-29T01:19:46;101741.53;;;6.79;100.00
54248;BME280;40161;39.768;2.722;2023-01-29T01:22:12;101714.31;;;6.48;99.94
54248;BME280;40161;39.768;2.722;2023-01-29T01:24:37;101730.75;;;6.74;99.59
54248;BME280;40161;39.768;2.722;2023-01-29T01:27:03;101732.69;;;6.74;98.35
54248;BME280;40161;39.768;2.722;2023-01-29T01:29:29;101740.41;;;6.72;97.94
54248;BME280;40161;39.768;2.722;2023-01-29T01:31:54;101730.88;;;6.60;97.51
54248;BME280;40161;39.768;2.722;2023-01-29T01:34:20;101734.78;;;6.77;98.66
54248;BME280;40161;39.768;2.722;2023-01-29T01:36:47;101739.31;;;6.81;97.06
54248;BME280;40161;39.768;2.722;2023-01-29T01:39:12;101736.75;;;6.85;97.89
54248;BME280;40161;39.768;2.722;2023-01-29T01:41:38;101730.63;;;6.79;96.03
54248;BME280;40161;39.768;2.722;2023-01-29T01:44:04;101743.53;;;6.96;96.32
54248;BME280;40161;39.768;2.722;2023-01-29T01:46:35;101734.22;;;6.97;95.17
54248;BME280;40161;39.768;2.722;2023-01-29T01:49:11;101731.78;;;6.87;91.92
54248;BME280;40161;39.768;2.722;2023-01-29T01:51:45;101718.00;;;6.92;89.48
54248;BME280;40161;39.768;2.722;2023-01-29T01:54:17;101741.97;;;7.12;89.12
54248;BME280;40161;39.768;2.722;2023-01-29T01:56:48;101745.19;;;7.14;86.26
54248;BME280;40161;39.768;2.722;2023-01-29T01:59:16;101746.97;;;7.28;85.19
54248;BME280;40161;39.768;2.722;2023-01-29T02:01:46;101749.06;;;7.40;82.32
54248;BME280;40161;39.768;2.722;2023-01-29T02:04:25;101742.66;;;7.44;82.40
54248;BME280;40161;39.768;2.722;2023-01-29T02:07:12;101753.41;;;7.49;80.53
54248;BME280;40161;39.768;2.722;2023-01-29T02:10:12;101749.25;;;7.52;82.21
54248;BME280;40161;39.768;2.722;2023-01-29T02:12:39;101740.72;;;7.45;81.34
54248;BME280;40161;39.768;2.722;2023-01-29T02:15:05;101752.31;;;7.76;80.43
54248;BME280;40161;39.768;2.722;2023-01-29T02:17:31;101734.16;;;7.63;82.79
54248;BME280;40161;39.768;2.722;2023-01-29T02:25:38;101746.34;;;7.48;82.30
54248;BME280;40161;39.768;2.722;2023-01-29T02:31:28;101745.88;;;7.72;79.60
54248;BME280;40161;39.768;2.722;2023-01-29T02:34:07;101756.19;;;7.75;80.18
54248;BME280;40161;39.768;2.722;2023-01-29T02:42:12;101749.59;;;7.68;79.94
54248;BME280;40161;39.768;2.722;2023-01-29T02:44:45;101761.94;;;8.08;74.87
54248;BME280;40161;39.768;2.722;2023-01-29T02:47:21;101760.53;;;7.85;76.27
54248;BME280;40161;39.768;2.722;2023-01-29T02:50:12;101759.53;;;7.90;78.14
54248;BME280;40161;39.768;2.722;2023-01-29T02:52:44;101734.00;;;7.68;78.45
54248;BME280;40161;39.768;2.722;2023-01-29T02:55:57;101754.25;;;7.84;78.25
54248;BME280;40161;39.768;2.722;2023-01-29T02:58:42;101763.56;;;7.92;77.93
54248;BME280;40161;39.768;2.722;2023-01-29T03:01:17;101759.56;;;7.98;75.45
54248;BME280;40161;39.768;2.722;2023-01-29T03:03:48;101750.38;;;7.85;76.96
54248;BME280;40161;39.768;2.722;2023-01-29T03:06:27;101750.69;;;7.84;77.03
54248;BME280;40161;39.768;2.722;2023-01-29T03:08:58;101761.16;;;7.99;74.77
54248;BME280;40161;39.768;2.722;2023-01-29T03:11:28;101750.56;;;7.72;76.71
54248;BME280;40161;39.768;2.722;2023-01-29T03:14:01;101773.38;;;7.84;77.79
54248;BME280;40161;39.768;2.722;2023-01-29T03:16:45;101774.16;;;7.94;75.83
54248;BME280;40161;39.768;2.722;2023-01-29T03:19:28;101770.63;;;7.93;75.53
54248;BME280;40161;39.768;2.722;2023-01-29T03:21:57;101774.34;;;7.80;76.14
54248;BME280;40161;39.768;2.722;2023-01-29T03:24:52;101780.78;;;7.75;78.02
54248;BME280;40161;39.768;2.722;2023-01-29T03:27:47;101767.41;;;7.91;75.42
54248;BME280;40161;39.768;2.722;2023-01-29T03:30:35;101766.47;;;7.78;75.31
54248;BME280;40161;39.768;2.722;2023-01-29T03:33:22;101765.00;;;7.81;76.63
54248;BME280;40161;39.768;2.722;2023-01-29T03:35:58;101760.84;;;7.92;75.80
54248;BME280;40161;39.768;2.722;2023-01-29T03:38:26;101769.03;;;7.83;77.86
54248;BME280;40161;39.768;2.722;2023-01-29T03:43:54;101766.28;;;7.83;75.69
54248;BME280;40161;39.768;2.722;2023-01-29T03:46:23;101777.69;;;7.94;75.32
54248;BME280;40161;39.768;2.722;2023-01-29T03:54:27;101772.56;;;8.10;76.77
54248;BME280;40161;39.768;2.722;2023-01-29T04:00:19;101762.78;;;7.92;79.18
54248;BME280;40161;39.768;2.722;2023-01-29T04:05:46;101725.97;;;7.72;80.23
54248;BME280;40161;39.768;2.722;2023-01-29T04:08:20;101756.47;;;7.91;76.98
54248;BME280;40161;39.768;2.722;2023-01-29T04:10:50;101758.09;;;7.92;78.18
54248;BME280;40161;39.768;2.722;2023-01-29T04:13:17;101758.25;;;7.96;77.48
54248;BME280;40161;39.768;2.722;2023-01-29T04:15:51;101765.81;;;7.90;78.31
54248;BME280;40161;39.768;2.722;2023-01-29T04:18:18;101736.25;;;7.75;75.54
54248;BME280;40161;39.768;2.722;2023-01-29T04:20:44;101717.59;;;7.59;75.10
54248;BME280;40161;39.768;2.722;2023-01-29T04:23:25;101732.53;;;7.71;75.82
54248;BME280;40161;39.768;2.722;2023-01-29T04:29:02;101745.69;;;7.95;73.85
54248;BME280;40161;39.768;2.722;2023-01-29T04:31:34;101724.50;;;7.83;74.64
54248;BME280;40161;39.768;2.722;2023-01-29T04:36:33;101751.19;;;7.86;75.06
54248;BME280;40161;39.768;2.722;2023-01-29T04:39:08;101749.91;;;7.83;75.26
54248;BME280;40161;39.768;2.722;2023-01-29T04:41:46;101733.19;;;7.85;73.80
54248;BME280;40161;39.768;2.722;2023-01-29T04:47:34;101750.53;;;7.89;74.29
54248;BME280;40161;39.768;2.722;2023-01-29T04:53:14;101760.66;;;7.97;76.27
54248;BME280;40161;39.768;2.722;2023-01-29T04:55:49;101738.50;;;7.81;78.01
54248;BME280;40161;39.768;2.722;2023-01-29T04:58:29;101765.34;;;7.79;79.97
54248;BME280;40161;39.768;2.722;2023-01-29T05:00:58;101766.13;;;7.80;80.15
54248;BME280;40161;39.768;2.722;2023-01-29T05:03:26;101749.59;;;7.68;81.95
54248;BME280;40161;39.768;2.722;2023-01-29T05:05:54;101752.16;;;7.73;80.97
54248;BME280;40161;39.768;2.722;2023-01-29T05:08:22;101752.16;;;7.64;80.20
54248;BME280;40161;39.768;2.722;2023-01-29T05:10:51;101770.78;;;7.71;80.15
54248;BME280;40161;39.768;2.722;2023-01-29T05:13:19;101758.28;;;7.61;79.58
54248;BME280;40161;39.768;2.722;2023-01-29T05:18:20;101767.59;;;7.86;78.68
54248;BME280;40161;39.768;2.722;2023-01-29T05:20:46;101788.34;;;7.96;80.51
54248;BME280;40161;39.768;2.722;2023-01-29T05:23:17;101777.38;;;7.70;81.67
54248;BME280;40161;39.768;2.722;2023-01-29T05:25:44;101773.50;;;7.53;84.27
54248;BME280;40161;39.768;2.722;2023-01-29T05:28:10;101770.63;;;7.58;85.42
54248;BME280;40161;39.768;2.722;2023-01-29T05:30:44;101798.94;;;7.71;84.79
54248;BME280;40161;39.768;2.722;2023-01-29T05:33:21;101808.88;;;7.58;85.91
54248;BME280;40161;39.768;2.722;2023-01-29T05:35:48;101780.09;;;7.44;87.30
54248;BME280;40161;39.768;2.722;2023-01-29T05:38:15;101802.59;;;7.49;88.40
54248;BME280;40161;39.768;2.722;2023-01-29T05:40:41;101806.13;;;7.41;83.93
54248;BME280;40161;39.768;2.722;2023-01-29T05:43:16;101813.53;;;7.67;84.09
54248;BME280;40161;39.768;2.722;2023-01-29T05:45:42;101803.56;;;7.71;84.15
54248;BME280;40161;39.768;2.722;2023-01-29T05:48:08;101798.63;;;7.64;85.83
54248;BME280;40161;39.768;2.722;2023-01-29T05:50:33;101780.41;;;7.42;86.24
54248;BME280;40161;39.768;2.722;2023-01-29T05:53:00;101822.19;;;7.60;87.03
54248;BME280;40161;39.768;2.722;2023-01-29T05:55:27;101823.03;;;7.69;88.54
54248;BME280;40161;39.768;2.722;2023-01-29T05:57:56;101814.50;;;7.62;86.77
54248;BME280;40161;39.768;2.722;2023-01-29T06:00:22;101795.16;;;7.32;84.95
54248;BME280;40161;39.768;2.722;2023-01-29T06:02:48;101822.97;;;7.43;83.97
54248;BME280;40161;39.768;2.722;2023-01-29T06:05:13;101823.97;;;7.56;83.75
54248;BME280;40161;39.768;2.722;2023-01-29T06:07:39;101821.09;;;7.61;81.32
54248;BME280;40161;39.768;2.722;2023-01-29T06:10:14;101838.63;;;7.77;80.52
54248;BME280;40161;39.768;2.722;2023-01-29T06:12:41;101831.59;;;7.85;80.20
54248;BME280;40161;39.768;2.722;2023-01-29T06:15:07;101831.22;;;7.60;81.98
54248;BME280;40161;39.768;2.722;2023-01-29T06:17:33;101838.00;;;7.80;81.85
54248;BME280;40161;39.768;2.722;2023-01-29T06:19:58;101845.69;;;7.70;81.77
54248;BME280;40161;39.768;2.722;2023-01-29T06:22:24;101830.72;;;7.58;81.05
54248;BME280;40161;39.768;2.722;2023-01-29T06:24:49;101864.84;;;7.78;80.87
54248;BME280;40161;39.768;2.722;2023-01-29T06:27:15;101852.44;;;7.64;79.85
54248;BME280;40161;39.768;2.722;2023-01-29T06:29:40;101859.69;;;7.68;78.21
54248;BME280;40161;39.768;2.722;2023-01-29T06:32:05;101847.78;;;7.73;77.36
54248;BME280;40161;39.768;2.722;2023-01-29T06:34:31;101861.28;;;7.60;77.88
54248;BME280;40161;39.768;2.722;2023-01-29T06:36:57;101857.44;;;7.79;77.63
54248;BME280;40161;39.768;2.722;2023-01-29T06:39:22;101864.50;;;7.80;77.38
54248;BME280;40161;39.768;2.722;2023-01-29T06:41:48;101866.59;;;7.66;78.84
54248;BME280;40161;39.768;2.722;2023-01-29T06:44:13;101850.81;;;7.54;78.78
54248;BME280;40161;39.768;2.722;2023-01-29T06:46:39;101877.69;;;7.60;77.93
54248;BME280;40161;39.768;2.722;2023-01-29T06:49:04;101870.28;;;7.61;79.44
54248;BME280;40161;39.768;2.722;2023-01-29T06:51:30;101891.06;;;7.97;77.64
54248;BME280;40161;39.768;2.722;2023-01-29T06:53:55;101862.41;;;7.68;77.53
54248;BME280;40161;39.768;2.722;2023-01-29T06:56:21;101893.59;;;7.76;78.03
54248;BME280;40161;39.768;2.722;2023-01-29T06:58:47;101882.19;;;7.65;78.22
54248;BME280;40161;39.768;2.722;2023-01-29T07:01:13;101890.06;;;7.75;78.42
54248;BME280;40161;39.768;2.722;2023-01-29T07:03:38;101882.00;;;7.70;78.25
54248;BME280;40161;39.768;2.722;2023-01-29T07:06:06;101852.03;;;7.39;78.32
54248;BME280;40161;39.768;2.722;2023-01-29T07:08:36;101908.41;;;7.75;77.89
54248;BME280;40161;39.768;2.722;2023-01-29T07:11:02;101902.44;;;7.73;77.81
54248;BME280;40161;39.768;2.722;2023-01-29T07:13:28;101895.72;;;7.88;77.08
54248;BME280;40161;39.768;2.722;2023-01-29T07:15:57;101908.00;;;8.16;73.62
54248;BME280;40161;39.768;2.722;2023-01-29T07:18:24;101904.56;;;7.93;76.03
54248;BME280;40161;39.768;2.722;2023-01-29T07:20:49;101896.41;;;8.02;74.29
54248;BME280;40161;39.768;2.722;2023-01-29T07:23:15;101903.78;;;8.10;71.65
54248;BME280;40161;39.768;2.722;2023-01-29T07:25:42;101889.78;;;7.85;73.47
54248;BME280;40161;39.768;2.722;2023-01-29T07:28:08;101921.59;;;7.90;73.57
54248;BME280;40161;39.768;2.722;2023-01-29T07:30:34;101933.53;;;8.12;73.78
54248;BME280;40161;39.768;2.722;2023-01-29T07:33:07;101941.59;;;8.25;73.58
54248;BME280;40161;39.768;2.722;2023-01-29T07:35:41;101944.16;;;7.96;73.86
54248;BME280;40161;39.768;2.722;2023-01-29T07:38:08;101944.94;;;7.96;75.37
54248;BME280;40161;39.768;2.722;2023-01-29T07:40:34;101931.59;;;8.03;73.53
54248;BME280;40161;39.768;2.722;2023-01-29T07:43:02;101943.22;;;8.18;73.35
54248;BME280;40161;39.768;2.722;2023-01-29T07:45:29;101935.94;;;8.04;74.75
54248;BME280;40161;39.768;2.722;2023-01-29T07:47:55;101948.81;;;7.95;73.15
54248;BME280;40161;39.768;2.722;2023-01-29T07:50:24;101949.13;;;7.94;73.06
54248;BME280;40161;39.768;2.722;2023-01-29T07:52:52;101967.13;;;7.95;72.94
54248;BME280;40161;39.768;2.722;2023-01-29T07:55:18;101950.88;;;7.90;73.75
54248;BME280;40161;39.768;2.722;2023-01-29T07:57:44;101899.66;;;7.55;73.08
54248;BME280;40161;39.768;2.722;2023-01-29T08:00:11;101957.47;;;7.97;73.53
54248;BME280;40161;39.768;2.722;2023-01-29T08:02:37;101940.09;;;7.84;73.20
54248;BME280;40161;39.768;2.722;2023-01-29T08:05:03;101967.47;;;8.02;73.13
54248;BME280;40161;39.768;2.722;2023-01-29T08:07:28;101970.84;;;8.07;73.05
54248;BME280;40161;39.768;2.722;2023-01-29T08:09:54;101956.03;;;8.08;70.85
54248;BME280;40161;39.768;2.722;2023-01-29T08:12:19;101970.56;;;8.18;70.36
54248;BME280;40161;39.768;2.722;2023-01-29T08:14:45;101990.72;;;8.39;70.54
54248;BME280;40161;39.768;2.722;2023-01-29T08:17:11;101991.16;;;8.32;70.49
54248;BME280;40161;39.768;2.722;2023-01-29T08:19:37;101995.66;;;8.20;69.55
54248;BME280;40161;39.768;2.722;2023-01-29T08:22:03;102011.28;;;8.19;70.23
54248;BME280;40161;39.768;2.722;2023-01-29T08:24:29;102008.03;;;8.17;71.02
54248;BME280;40161;39.768;2.722;2023-01-29T08:26:55;101998.41;;;8.28;69.29
54248;BME280;40161;39.768;2.722;2023-01-29T08:29:20;102002.09;;;8.24;68.79
54248;BME280;40161;39.768;2.722;2023-01-29T08:31:46;102007.09;;;8.30;68.71
54248;BME280;40161;39.768;2.722;2023-01-29T08:34:12;102007.41;;;8.29;70.45
54248;BME280;40161;39.768;2.722;2023-01-29T08:36:37;101993.78;;;8.46;67.40
54248;BME280;40161;39.768;2.722;2023-01-29T08:39:03;102028.53;;;8.46;69.00
54248;BME280;40161;39.768;2.722;2023-01-29T08:41:28;102004.84;;;8.24;69.15
54248;BME280;40161;39.768;2.722;2023-01-29T08:43:54;102020.78;;;8.30;68.86
54248;BME280;40161;39.768;2.722;2023-01-29T08:46:19;102008.88;;;8.35;69.52
54248;BME280;40161;39.768;2.722;2023-01-29T08:48:45;102032.06;;;8.46;70.88
54248;BME280;40161;39.768;2.722;2023-01-29T08:51:11;102043.53;;;8.40;72.05
54248;BME280;40161;39.768;2.722;2023-01-29T08:53:37;102029.63;;;8.27;72.47
54248;BME280;40161;39.768;2.722;2023-01-29T08:56:02;102057.44;;;8.21;76.68
54248;BME280;40161;39.768;2.722;2023-01-29T08:58:28;102055.25;;;7.92;81.39
54248;BME280;40161;39.768;2.722;2023-01-29T09:00:53;102060.56;;;7.97;82.94
54248;BME280;40161;39.768;2.722;2023-01-29T09:03:19;102078.13;;;7.73;88.47
54248;BME280;40161;39.768;2.722;2023-01-29T09:05:44;102058.00;;;7.60;91.81
54248;BME280;40161;39.768;2.722;2023-01-29T09:08:11;102088.84;;;7.38;91.42
54248;BME280;40161;39.768;2.722;2023-01-29T09:10:37;102049.00;;;7.15;95.37
54248;BME280;40161;39.768;2.722;2023-01-29T09:13:03;102072.72;;;7.06;96.12
54248;BME280;40161;39.768;2.722;2023-01-29T09:15:28;102053.41;;;6.80;97.86
54248;BME280;40161;39.768;2.722;2023-01-29T09:17:54;102085.50;;;6.97;94.99
54248;BME280;40161;39.768;2.722;2023-01-29T09:20:19;102067.66;;;7.13;93.30
54248;BME280;40161;39.768;2.722;2023-01-29T09:22:45;102084.34;;;7.34;92.14
54248;BME280;40161;39.768;2.722;2023-01-29T09:25:12;102062.53;;;7.43;93.03
54248;BME280;40161;39.768;2.722;2023-01-29T09:27:37;102064.81;;;7.49;95.07
54248;BME280;40161;39.768;2.722;2023-01-29T09:30:04;102084.00;;;7.58;96.70
54248;BME280;40161;39.768;2.722;2023-01-29T09:32:31;102086.38;;;7.51;97.62
54248;BME280;40161;39.768;2.722;2023-01-29T09:34:56;102094.22;;;7.44;95.01
54248;BME280;40161;39.768;2.722;2023-01-29T09:37:22;102070.53;;;7.39;87.63
54248;BME280;40161;39.768;2.722;2023-01-29T09:39:51;102102.69;;;7.65;86.55
54248;BME280;40161;39.768;2.722;2023-01-29T09:42:30;102097.59;;;7.72;88.35
54248;BME280;40161;39.768;2.722;2023-01-29T09:45:11;102079.56;;;7.71;89.24
54248;BME280;40161;39.768;2.722;2023-01-29T09:47:38;102083.94;;;7.80;87.90
54248;BME280;40161;39.768;2.722;2023-01-29T09:50:13;102095.59;;;7.64;86.10
54248;BME280;40161;39.768;2.722;2023-01-29T09:55:32;102081.84;;;7.77;87.77
54248;BME280;40161;39.768;2.722;2023-01-29T09:58:36;102100.75;;;7.96;89.24
54248;BME280;40161;39.768;2.722;2023-01-29T10:01:26;102113.75;;;7.91;86.07
54248;BME280;40161;39.768;2.722;2023-01-29T10:25:28;102092.47;;;8.19;81.66
54248;BME280;40161;39.768;2.722;2023-01-29T10:27:56;102111.41;;;8.38;82.66
54248;BME280;40161;39.768;2.722;2023-01-29T10:30:27;102109.47;;;8.38;79.63
54248;BME280;40161;39.768;2.722;2023-01-29T10:32:55;102107.72;;;8.11;79.02
54248;BME280;40161;39.768;2.722;2023-01-29T10:35:37;102100.34;;;8.12;77.46
54248;BME280;40161;39.768;2.722;2023-01-29T10:43:56;102109.28;;;8.35;77.22
54248;BME280;40161;39.768;2.722;2023-01-29T10:58:06;102141.06;;;8.53;74.99
54248;BME280;40161;39.768;2.722;2023-01-29T11:00:26;102131.34;;;8.38;76.44
54248;BME280;40161;39.768;2.722;2023-01-29T11:02:54;102157.19;;;8.23;76.71
54248;BME280;40161;39.768;2.722;2023-01-29T11:05:33;102166.41;;;8.05;78.40
54248;BME280;40161;39.768;2.722;2023-01-29T11:08:07;102145.34;;;7.74;81.41
54248;BME280;40161;39.768;2.722;2023-01-29T11:13:27;102130.25;;;7.77;86.14
54248;BME280;40161;39.768;2.722;2023-01-29T11:15:55;102098.22;;;7.69;87.71
54248;BME280;40161;39.768;2.722;2023-01-29T11:18:21;102097.53;;;7.63;87.67
54248;BME280;40161;39.768;2.722;2023-01-29T11:20:59;102114.91;;;7.67;88.42
54248;BME280;40161;39.768;2.722;2023-01-29T11:23:28;102107.38;;;7.73;88.26
54248;BME280;40161;39.768;2.722;2023-01-29T11:25:56;102097.59;;;7.49;90.37
54248;BME280;40161;39.768;2.722;2023-01-29T11:28:42;102108.91;;;7.34;88.60
54248;BME280;40161;39.768;2.722;2023-01-29T11:31:22;102106.03;;;7.61;88.51
54248;BME280;40161;39.768;2.722;2023-01-29T11:33:51;102085.75;;;7.54;88.38
54248;BME280;40161;39.768;2.722;2023-01-29T11:36:28;102095.59;;;7.64;88.04
54248;BME280;40161;39.768;2.722;2023-01-29T11:39:19;102088.00;;;7.83;88.78
54248;BME280;40161;39.768;2.722;2023-01-29T11:42:03;102078.81;;;7.79;90.35
54248;BME280;40161;39.768;2.722;2023-01-29T11:47:21;102070.78;;;7.82;86.15
54248;BME280;40161;39.768;2.722;2023-01-29T11:49:53;102061.69;;;7.96;85.01
54248;BME280;40161;39.768;2.722;2023-01-29T11:52:22;102065.41;;;8.08;86.69
54248;BME280;40161;39.768;2.722;2023-01-29T11:54:56;102080.03;;;8.04;85.86
54248;BME280;40161;39.768;2.722;2023-01-29T11:57:37;102051.28;;;8.15;86.61
54248;BME280;40161;39.768;2.722;2023-01-29T12:00:22;102061.75;;;8.13;87.98
54248;BME280;40161;39.768;2.722;2023-01-29T12:05:24;102046.44;;;8.03;86.39
54248;BME280;40161;39.768;2.722;2023-01-29T12:07:53;102036.31;;;8.04;87.08
54248;BME280;40161;39.768;2.722;2023-01-29T12:10:33;102039.06;;;8.13;89.80
54248;BME280;40161;39.768;2.722;2023-01-29T12:13:26;102063.53;;;8.18;89.61
54248;BME280;40161;39.768;2.722;2023-01-29T12:18:50;102062.63;;;7.91;87.78
54248;BME280;40161;39.768;2.722;2023-01-29T12:21:35;102093.16;;;7.84;90.20
54248;BME280;40161;39.768;2.722;2023-01-29T12:27:13;102086.34;;;7.73;90.39
54248;BME280;40161;39.768;2.722;2023-01-29T12:29:55;102067.50;;;7.41;94.46
54248;BME280;40161;39.768;2.722;2023-01-29T12:32:31;102077.84;;;7.52;95.67
54248;BME280;40161;39.768;2.722;2023-01-29T12:40:00;102047.44;;;7.45;100.00
54248;BME280;40161;39.768;2.722;2023-01-29T12:42:26;102063.84;;;7.45;100.00
54248;BME280;40161;39.768;2.722;2023-01-29T12:45:02;102053.16;;;7.35;100.00
54248;BME280;40161;39.768;2.722;2023-01-29T12:47:40;102043.72;;;7.19;100.00
54248;BME280;40161;39.768;2.722;2023-01-29T12:50:18;102050.56;;;7.30;100.00
54248;BME280;40161;39.768;2.722;2023-01-29T12:52:51;102035.06;;;7.17;100.00
54248;BME280;40161;39.768;2.722;2023-01-29T12:55:25;102031.28;;;7.26;100.00
54248;BME280;40161;39.768;2.722;2023-01-29T12:58:03;102041.25;;;7.31;100.00
54248;BME280;40161;39.768;2.722;2023-01-29T13:00:37;102018.16;;;7.37;100.00
54248;BME280;40161;39.768;2.722;2023-01-29T13:05:47;102046.50;;;7.50;100.00
54248;BME280;40161;39.768;2.722;2023-01-29T13:08:25;102029.00;;;7.51;100.00
54248;BME280;40161;39.768;2.722;2023-01-29T13:10:53;102038.91;;;7.69;99.63
54248;BME280;40161;39.768;2.722;2023-01-29T13:15:56;102016.06;;;7.65;98.60
54248;BME280;40161;39.768;2.722;2023-01-29T13:21:05;102009.97;;;7.68;96.97
54248;BME280;40161;39.768;2.722;2023-01-29T13:23:44;102015.31;;;7.82;97.54
54248;BME280;40161;39.768;2.722;2023-01-29T13:26:12;101992.91;;;7.63;96.87
54248;BME280;40161;39.768;2.722;2023-01-29T13:28:38;102013.00;;;7.67;96.91
54248;BME280;40161;39.768;2.722;2023-01-29T13:31:31;102007.25;;;7.68;98.58
54248;BME280;40161;39.768;2.722;2023-01-29T13:34:03;102019.13;;;7.72;99.11
54248;BME280;40161;39.768;2.722;2023-01-29T13:36:30;102010.50;;;7.79;99.99
54248;BME280;40161;39.768;2.722;2023-01-29T13:39:07;102010.34;;;7.84;100.00
54248;BME280;40161;39.768;2.722;2023-01-29T13:41:41;102011.97;;;7.85;98.91
54248;BME280;40161;39.768;2.722;2023-01-29T13:44:36;101993.41;;;7.73;97.74
54248;BME280;40161;39.768;2.722;2023-01-29T13:47:05;102034.88;;;8.06;97.58
54248;BME280;40161;39.768;2.722;2023-01-29T13:49:35;102021.81;;;8.03;94.44
54248;BME280;40161;39.768;2.722;2023-01-29T13:52:31;102034.03;;;7.97;92.10
54248;BME280;40161;39.768;2.722;2023-01-29T14:08:45;102014.00;;;8.19;92.82
54248;BME280;40161;39.768;2.722;2023-01-29T14:13:41;102014.44;;;8.04;91.47
54248;BME280;40161;39.768;2.722;2023-01-29T14:18:44;102040.09;;;8.34;92.34
54248;BME280;40161;39.768;2.722;2023-01-29T14:23:53;102033.25;;;8.05;87.64
54248;BME280;40161;39.768;2.722;2023-01-29T14:26:30;102051.63;;;8.14;87.42
54248;BME280;40161;39.768;2.722;2023-01-29T14:29:16;102065.25;;;8.45;87.40
54248;BME280;40161;39.768;2.722;2023-01-29T14:32:19;102051.50;;;8.27;87.77
54248;BME280;40161;39.768;2.722;2023-01-29T14:34:56;102059.31;;;8.12;87.93
54248;BME280;40161;39.768;2.722;2023-01-29T14:37:34;102048.53;;;8.06;90.90
54248;BME280;40161;39.768;2.722;2023-01-29T14:42:38;102077.81;;;8.15;93.80
54248;BME280;40161;39.768;2.722;2023-01-29T14:48:08;102090.28;;;7.90;93.31
54248;BME280;40161;39.768;2.722;2023-01-29T14:50:48;102051.44;;;7.70;91.32
54248;BME280;40161;39.768;2.722;2023-01-29T14:53:41;102079.78;;;7.83;91.81
54248;BME280;40161;39.768;2.722;2023-01-29T14:56:19;102068.00;;;7.74;95.33
54248;BME280;40161;39.768;2.722;2023-01-29T14:58:52;102063.13;;;7.62;95.53
54248;BME280;40161;39.768;2.722;2023-01-29T15:01:33;102078.84;;;7.56;95.68
54248;BME280;40161;39.768;2.722;2023-01-29T15:04:27;102050.19;;;7.45;95.27
54248;BME280;40161;39.768;2.722;2023-01-29T15:09:48;102054.13;;;7.30;97.46
54248;BME280;40161;39.768;2.722;2023-01-29T15:15:18;101992.06;;;6.77;99.71
54248;BME280;40161;39.768;2.722;2023-01-29T15:17:56;102066.41;;;7.19;100.00
54248;BME280;40161;39.768;2.722;2023-01-29T15:20:37;102057.09;;;7.20;100.00
54248;BME280;40161;39.768;2.722;2023-01-29T15:23:27;102043.56;;;7.37;100.00
54248;BME280;40161;39.768;2.722;2023-01-29T15:25:54;102070.00;;;7.28;99.80
54248;BME280;40161;39.768;2.722;2023-01-29T15:28:21;102065.06;;;7.39;100.00
54248;BME280;40161;39.768;2.722;2023-01-29T15:30:53;102073.25;;;7.61;100.00
54248;BME280;40161;39.768;2.722;2023-01-29T15:33:19;102068.34;;;7.50;100.00
54248;BME280;40161;39.768;2.722;2023-01-29T15:35:46;102079.03;;;7.60;100.00
54248;BME280;40161;39.768;2.722;2023-01-29T15:38:22;102058.81;;;7.38;99.95
54248;BME280;40161;39.768;2.722;2023-01-29T15:43:34;102071.47;;;7.34;100.00
54248;BME280;40161;39.768;2.722;2023-01-29T15:46:04;102062.94;;;7.27;100.00
54248;BME280;40161;39.768;2.722;2023-01-29T15:48:36;102057.38;;;7.41;100.00